Time,TemperatureF,DewpointF,PressureIn,WindDirection,WindDirectionDegrees,WindSpeedMPH,WindSpeedGustMPH,Humidity,HourlyPrecipIn,Conditions,Clouds,dailyrainin,SoftwareType,DateUTC
2013-07-19 00:02:00,81.0,65.3,29.96,North,-999,-999.0,-999.0,59,-99.99,,,-99.99,meteohub,2013-07-19 05:02:00,
2013-07-19 00:08:00,81.0,65.3,29.96,North,-999,-999.0,-999.0,59,-99.99,,,-99.99,meteohub,2013-07-19 05:08:00,
2013-07-19 00:14:00,80.8,65.7,29.96,North,-999,-999.0,-999.0,60,-99.99,,,-99.99,meteohub,2013-07-19 05:14:00,
2013-07-19 00:21:00,80.6,65.5,29.96,North,-999,-999.0,-999.0,60,-99.99,,,-99.99,meteohub,2013-07-19 05:21:00,
2013-07-19 00:27:00,80.4,65.3,29.96,North,-999,-999.0,-999.0,60,-99.99,,,-99.99,meteohub,2013-07-19 05:27:00,
2013-07-19 00:33:00,80.2,65.5,29.96,North,-999,-999.0,-999.0,61,-99.99,,,-99.99,meteohub,2013-07-19 05:33:00,
2013-07-19 00:39:00,79.9,65.3,29.96,North,-999,-999.0,-999.0,61,-99.99,,,-99.99,meteohub,2013-07-19 05:39:00,
2013-07-19 00:45:00,79.7,65.5,29.96,North,-999,-999.0,-999.0,62,-99.99,,,-99.99,meteohub,2013-07-19 05:45:00,
2013-07-19 00:52:00,79.5,65.3,29.96,North,-999,-999.0,-999.0,62,-99.99,,,-99.99,meteohub,2013-07-19 05:52:00,
2013-07-19 00:57:00,79.3,65.1,29.96,North,-999,-999.0,-999.0,62,-99.99,,,-99.99,meteohub,2013-07-19 05:57:00,
2013-07-19 01:04:00,79.0,65.3,29.96,North,-999,-999.0,-999.0,63,-99.99,,,-99.99,meteohub,2013-07-19 06:04:00,
2013-07-19 01:10:00,79.2,65.5,29.96,North,-999,-999.0,-999.0,63,-99.99,,,-99.99,meteohub,2013-07-19 06:10:00,
2013-07-19 01:16:00,79.2,65.5,29.96,North,-999,-999.0,-999.0,63,-99.99,,,-99.99,meteohub,2013-07-19 06:16:00,
2013-07-19 01:22:00,79.0,65.3,29.96,North,-999,-999.0,-999.0,63,-99.99,,,-99.99,meteohub,2013-07-19 06:22:00,
2013-07-19 01:27:00,79.0,65.3,29.96,North,-999,-999.0,-999.0,63,-99.99,,,-99.99,meteohub,2013-07-19 06:27:00,
2013-07-19 01:34:00,78.8,65.7,29.96,North,-999,-999.0,-999.0,64,-99.99,,,-99.99,meteohub,2013-07-19 06:34:00,
2013-07-19 01:40:00,78.8,65.7,29.96,North,-999,-999.0,-999.0,64,-99.99,,,-99.99,meteohub,2013-07-19 06:40:00,
2013-07-19 01:47:00,78.6,65.5,29.96,North,-999,-999.0,-999.0,64,-99.99,,,-99.99,meteohub,2013-07-19 06:47:00,
2013-07-19 01:52:00,78.4,65.3,29.95,North,-999,-999.0,-999.0,64,-99.99,,,-99.99,meteohub,2013-07-19 06:52:00,
2013-07-19 01:57:00,78.3,65.1,29.96,North,-999,-999.0,-999.0,64,-99.99,,,-99.99,meteohub,2013-07-19 06:57:00,
2013-07-19 02:02:00,78.1,65.3,29.96,North,-999,-999.0,-999.0,65,-99.99,,,-99.99,meteohub,2013-07-19 07:02:00,
2013-07-19 02:09:00,77.7,64.9,29.96,North,-999,-999.0,-999.0,65,-99.99,,,-99.99,meteohub,2013-07-19 07:09:00,
2013-07-19 02:15:00,77.2,64.9,29.96,North,-999,-999.0,-999.0,66,-99.99,,,-99.99,meteohub,2013-07-19 07:15:00,
2013-07-19 02:21:00,77.2,65.3,29.96,North,-999,-999.0,-999.0,67,-99.99,,,-99.99,meteohub,2013-07-19 07:21:00,
2013-07-19 02:27:00,77.2,65.3,29.96,North,-999,-999.0,-999.0,67,-99.99,,,-99.99,meteohub,2013-07-19 07:27:00,
2013-07-19 02:32:00,77.0,65.1,29.96,North,-999,-999.0,-999.0,67,-99.99,,,-99.99,meteohub,2013-07-19 07:32:00,
2013-07-19 02:37:00,76.8,64.9,29.96,North,-999,-999.0,-999.0,67,-99.99,,,-99.99,meteohub,2013-07-19 07:37:00,
2013-07-19 02:42:00,76.6,65.3,29.96,North,-999,-999.0,-999.0,68,-99.99,,,-99.99,meteohub,2013-07-19 07:42:00,
2013-07-19 02:48:00,76.3,65.3,29.96,North,-999,-999.0,-999.0,69,-99.99,,,-99.99,meteohub,2013-07-19 07:48:00,
2013-07-19 02:54:00,76.8,65.5,29.95,North,-999,-999.0,-999.0,68,-99.99,,,-99.99,meteohub,2013-07-19 07:54:00,
2013-07-19 03:01:00,76.8,65.5,29.95,North,-999,-999.0,-999.0,68,-99.99,,,-99.99,meteohub,2013-07-19 08:01:00,
2013-07-19 03:07:00,76.8,65.5,29.95,North,-999,-999.0,-999.0,68,-99.99,,,-99.99,meteohub,2013-07-19 08:07:00,
2013-07-19 03:12:00,76.8,65.5,29.95,North,-999,-999.0,-999.0,68,-99.99,,,-99.99,meteohub,2013-07-19 08:12:00,
2013-07-19 03:17:00,76.6,65.3,29.95,North,-999,-999.0,-999.0,68,-99.99,,,-99.99,meteohub,2013-07-19 08:17:00,
2013-07-19 03:22:00,76.5,65.1,29.94,North,-999,-999.0,-999.0,68,-99.99,,,-99.99,meteohub,2013-07-19 08:22:00,
2013-07-19 03:27:00,76.5,65.1,29.95,North,-999,-999.0,-999.0,68,-99.99,,,-99.99,meteohub,2013-07-19 08:27:00,
2013-07-19 03:32:00,75.9,64.9,29.95,North,-999,-999.0,-999.0,69,-99.99,,,-99.99,meteohub,2013-07-19 08:32:00,
2013-07-19 03:37:00,75.7,65.3,29.94,North,-999,-999.0,-999.0,70,-99.99,,,-99.99,meteohub,2013-07-19 08:37:00,
2013-07-19 03:43:00,75.6,65.5,29.94,North,-999,-999.0,-999.0,71,-99.99,,,-99.99,meteohub,2013-07-19 08:43:00,
2013-07-19 03:50:00,75.6,65.5,29.95,North,-999,-999.0,-999.0,71,-99.99,,,-99.99,meteohub,2013-07-19 08:50:00,
2013-07-19 03:56:00,75.6,65.5,29.94,North,-999,-999.0,-999.0,71,-99.99,,,-99.99,meteohub,2013-07-19 08:56:00,
2013-07-19 04:02:00,75.2,65.1,29.94,North,-999,-999.0,-999.0,71,-99.99,,,-99.99,meteohub,2013-07-19 09:02:00,
2013-07-19 04:07:00,74.8,65.1,29.94,North,-999,-999.0,-999.0,72,-99.99,,,-99.99,meteohub,2013-07-19 09:07:00,
2013-07-19 04:14:00,75.2,65.5,29.94,North,-999,-999.0,-999.0,72,-99.99,,,-99.99,meteohub,2013-07-19 09:14:00,
2013-07-19 04:22:00,75.4,65.7,29.94,North,-999,-999.0,-999.0,72,-99.99,,,-99.99,meteohub,2013-07-19 09:22:00,
2013-07-19 04:27:00,75.4,65.7,29.94,North,-999,-999.0,-999.0,72,-99.99,,,-99.99,meteohub,2013-07-19 09:27:00,
2013-07-19 04:32:00,75.4,65.7,29.94,North,-999,-999.0,-999.0,72,-99.99,,,-99.99,meteohub,2013-07-19 09:32:00,
2013-07-19 04:38:00,75.2,65.5,29.94,North,-999,-999.0,-999.0,72,-99.99,,,-99.99,meteohub,2013-07-19 09:38:00,
2013-07-19 04:44:00,74.8,65.7,29.93,North,-999,-999.0,-999.0,73,-99.99,,,-99.99,meteohub,2013-07-19 09:44:00,
2013-07-19 04:50:00,74.5,65.3,29.93,North,-999,-999.0,-999.0,73,-99.99,,,-99.99,meteohub,2013-07-19 09:50:00,
2013-07-19 04:57:00,73.9,65.1,29.94,North,-999,-999.0,-999.0,74,-99.99,,,-99.99,meteohub,2013-07-19 09:57:00,
2013-07-19 05:02:00,73.6,65.1,29.93,North,-999,-999.0,-999.0,75,-99.99,,,-99.99,meteohub,2013-07-19 10:02:00,
2013-07-19 05:07:00,73.4,64.9,29.94,North,-999,-999.0,-999.0,75,-99.99,,,-99.99,meteohub,2013-07-19 10:07:00,
2013-07-19 05:12:00,73.2,65.1,29.93,North,-999,-999.0,-999.0,76,-99.99,,,-99.99,meteohub,2013-07-19 10:12:00,
2013-07-19 05:18:00,73.2,66.0,29.93,North,-999,-999.0,-999.0,78,-99.99,,,-99.99,meteohub,2013-07-19 10:18:00,
2013-07-19 05:24:00,73.2,65.7,29.94,North,-999,-999.0,-999.0,77,-99.99,,,-99.99,meteohub,2013-07-19 10:24:00,
2013-07-19 05:30:00,72.9,65.7,29.94,North,-999,-999.0,-999.0,78,-99.99,,,-99.99,meteohub,2013-07-19 10:30:00,
2013-07-19 05:36:00,73.0,65.8,29.94,North,-999,-999.0,-999.0,78,-99.99,,,-99.99,meteohub,2013-07-19 10:36:00,
2013-07-19 05:42:00,73.2,66.0,29.94,North,-999,-999.0,-999.0,78,-99.99,,,-99.99,meteohub,2013-07-19 10:42:00,
2013-07-19 05:47:00,73.0,65.8,29.94,North,-999,-999.0,-999.0,78,-99.99,,,-99.99,meteohub,2013-07-19 10:47:00,
2013-07-19 05:52:00,73.0,65.8,29.94,North,-999,-999.0,-999.0,78,-99.99,,,-99.99,meteohub,2013-07-19 10:52:00,
2013-07-19 05:57:00,72.9,66.0,29.94,North,-999,-999.0,-999.0,79,-99.99,,,-99.99,meteohub,2013-07-19 10:57:00,
2013-07-19 06:03:00,72.7,65.8,29.94,North,-999,-999.0,-999.0,79,-99.99,,,-99.99,meteohub,2013-07-19 11:03:00,
2013-07-19 06:09:00,72.5,65.7,29.94,North,-999,-999.0,-999.0,79,-99.99,,,-99.99,meteohub,2013-07-19 11:09:00,
2013-07-19 06:15:00,72.3,65.8,29.94,North,-999,-999.0,-999.0,80,-99.99,,,-99.99,meteohub,2013-07-19 11:15:00,
2013-07-19 06:22:00,72.5,66.0,29.94,North,-999,-999.0,-999.0,80,-99.99,,,-99.99,meteohub,2013-07-19 11:22:00,
2013-07-19 06:27:00,72.3,65.8,29.94,North,-999,-999.0,-999.0,80,-99.99,,,-99.99,meteohub,2013-07-19 11:27:00,
2013-07-19 06:34:00,72.9,66.4,29.95,North,-999,-999.0,-999.0,80,-99.99,,,-99.99,meteohub,2013-07-19 11:34:00,
2013-07-19 06:40:00,73.9,67.1,29.95,North,-999,-999.0,-999.0,79,-99.99,,,-99.99,meteohub,2013-07-19 11:40:00,
2013-07-19 06:46:00,75.0,66.9,29.95,North,-999,-999.0,-999.0,76,-99.99,,,-99.99,meteohub,2013-07-19 11:46:00,
2013-07-19 06:52:00,76.1,67.3,29.95,North,-999,-999.0,-999.0,74,-99.99,,,-99.99,meteohub,2013-07-19 11:52:00,
2013-07-19 06:57:00,76.8,67.8,29.95,North,-999,-999.0,-999.0,74,-99.99,,,-99.99,meteohub,2013-07-19 11:57:00,
2013-07-19 07:04:00,77.9,67.8,29.95,North,-999,-999.0,-999.0,71,-99.99,,,-99.99,meteohub,2013-07-19 12:04:00,
2013-07-19 07:10:00,78.1,67.1,29.95,North,-999,-999.0,-999.0,69,-99.99,,,-99.99,meteohub,2013-07-19 12:10:00,
2013-07-19 07:16:00,78.6,67.6,29.96,North,-999,-999.0,-999.0,69,-99.99,,,-99.99,meteohub,2013-07-19 12:16:00,
2013-07-19 07:22:00,78.8,67.3,29.96,North,-999,-999.0,-999.0,68,-99.99,,,-99.99,meteohub,2013-07-19 12:22:00,
2013-07-19 07:27:00,79.3,67.5,29.96,North,-999,-999.0,-999.0,67,-99.99,,,-99.99,meteohub,2013-07-19 12:27:00,
2013-07-19 07:34:00,80.2,67.5,29.96,North,-999,-999.0,-999.0,65,-99.99,,,-99.99,meteohub,2013-07-19 12:34:00,
2013-07-19 07:41:00,80.8,67.5,29.96,North,-999,-999.0,-999.0,64,-99.99,,,-99.99,meteohub,2013-07-19 12:41:00,
2013-07-19 07:47:00,81.7,67.8,29.96,North,-999,-999.0,-999.0,63,-99.99,,,-99.99,meteohub,2013-07-19 12:47:00,
2013-07-19 07:52:00,82.0,67.6,29.96,North,-999,-999.0,-999.0,62,-99.99,,,-99.99,meteohub,2013-07-19 12:52:00,
2013-07-19 08:00:00,82.2,67.8,29.96,North,-999,-999.0,-999.0,62,-99.99,,,-99.99,meteohub,2013-07-19 13:00:00,
2013-07-19 08:06:00,82.6,68.2,29.96,North,-999,-999.0,-999.0,62,-99.99,,,-99.99,meteohub,2013-07-19 13:06:00,
2013-07-19 08:12:00,83.1,68.4,29.96,North,-999,-999.0,-999.0,61,-99.99,,,-99.99,meteohub,2013-07-19 13:12:00,
2013-07-19 08:17:00,83.7,68.4,29.96,North,-999,-999.0,-999.0,60,-99.99,,,-99.99,meteohub,2013-07-19 13:17:00,
2013-07-19 08:22:00,84.4,68.5,29.96,North,-999,-999.0,-999.0,59,-99.99,,,-99.99,meteohub,2013-07-19 13:22:00,
2013-07-19 08:27:00,84.6,68.2,29.96,North,-999,-999.0,-999.0,58,-99.99,,,-99.99,meteohub,2013-07-19 13:27:00,
2013-07-19 08:30:00,84.7,68.4,29.96,North,-999,-999.0,-999.0,58,-99.99,,,-99.99,meteohub,2013-07-19 13:30:00,
2013-07-19 08:37:00,84.7,67.8,29.96,North,-999,-999.0,-999.0,57,-99.99,,,-99.99,meteohub,2013-07-19 13:37:00,
2013-07-19 08:43:00,85.5,68.0,29.96,North,-999,-999.0,-999.0,56,-99.99,,,-99.99,meteohub,2013-07-19 13:43:00,
2013-07-19 08:49:00,86.0,68.0,29.97,North,-999,-999.0,-999.0,55,-99.99,,,-99.99,meteohub,2013-07-19 13:49:00,
2013-07-19 08:55:00,86.4,67.8,29.96,North,-999,-999.0,-999.0,54,-99.99,,,-99.99,meteohub,2013-07-19 13:55:00,
2013-07-19 09:01:00,86.7,68.0,29.96,North,-999,-999.0,-999.0,54,-99.99,,,-99.99,meteohub,2013-07-19 14:01:00,
2013-07-19 09:07:00,87.3,68.0,29.96,North,-999,-999.0,-999.0,53,-99.99,,,-99.99,meteohub,2013-07-19 14:07:00,
2013-07-19 09:14:00,87.4,67.6,29.96,North,-999,-999.0,-999.0,52,-99.99,,,-99.99,meteohub,2013-07-19 14:14:00,
2013-07-19 09:20:00,88.0,66.9,29.96,North,-999,-999.0,-999.0,50,-99.99,,,-99.99,meteohub,2013-07-19 14:20:00,
2013-07-19 09:26:00,88.2,67.8,29.96,North,-999,-999.0,-999.0,51,-99.99,,,-99.99,meteohub,2013-07-19 14:26:00,
2013-07-19 09:32:00,88.3,66.2,29.96,North,-999,-999.0,-999.0,48,-99.99,,,-99.99,meteohub,2013-07-19 14:32:00,
2013-07-19 09:37:00,88.7,66.6,29.96,North,-999,-999.0,-999.0,48,-99.99,,,-99.99,meteohub,2013-07-19 14:37:00,
2013-07-19 09:42:00,88.7,65.8,29.96,North,-999,-999.0,-999.0,47,-99.99,,,-99.99,meteohub,2013-07-19 14:42:00,
2013-07-19 09:47:00,89.8,66.9,29.96,North,-999,-999.0,-999.0,47,-99.99,,,-99.99,meteohub,2013-07-19 14:47:00,
2013-07-19 09:52:00,90.0,65.8,29.96,North,-999,-999.0,-999.0,45,-99.99,,,-99.99,meteohub,2013-07-19 14:52:00,
2013-07-19 09:57:00,90.0,65.1,29.96,North,-999,-999.0,-999.0,44,-99.99,,,-99.99,meteohub,2013-07-19 14:57:00,
2013-07-19 10:02:00,90.9,65.8,29.96,North,-999,-999.0,-999.0,44,-99.99,,,-99.99,meteohub,2013-07-19 15:02:00,
2013-07-19 10:08:00,91.2,65.7,29.96,North,-999,-999.0,-999.0,43,-99.99,,,-99.99,meteohub,2013-07-19 15:08:00,
2013-07-19 10:15:00,91.4,65.1,29.96,North,-999,-999.0,-999.0,42,-99.99,,,-99.99,meteohub,2013-07-19 15:15:00,
2013-07-19 10:21:00,92.1,64.9,29.96,North,-999,-999.0,-999.0,41,-99.99,,,-99.99,meteohub,2013-07-19 15:21:00,
2013-07-19 10:27:00,92.1,64.4,29.95,North,-999,-999.0,-999.0,40,-99.99,,,-99.99,meteohub,2013-07-19 15:27:00,
2013-07-19 10:32:00,93.0,64.4,29.95,North,-999,-999.0,-999.0,39,-99.99,,,-99.99,meteohub,2013-07-19 15:32:00,
2013-07-19 10:37:00,92.8,64.9,29.95,North,-999,-999.0,-999.0,40,-99.99,,,-99.99,meteohub,2013-07-19 15:37:00,
2013-07-19 10:43:00,93.6,63.3,29.95,North,-999,-999.0,-999.0,37,-99.99,,,-99.99,meteohub,2013-07-19 15:43:00,
2013-07-19 10:49:00,93.9,64.4,29.95,North,-999,-999.0,-999.0,38,-99.99,,,-99.99,meteohub,2013-07-19 15:49:00,
2013-07-19 10:56:00,94.8,63.0,29.95,North,-999,-999.0,-999.0,35,-99.99,,,-99.99,meteohub,2013-07-19 15:56:00,
2013-07-19 11:02:00,93.9,62.1,29.95,North,-999,-999.0,-999.0,35,-99.99,,,-99.99,meteohub,2013-07-19 16:02:00,
2013-07-19 11:08:00,94.1,61.5,29.95,North,-999,-999.0,-999.0,34,-99.99,,,-99.99,meteohub,2013-07-19 16:08:00,
2013-07-19 11:14:00,94.5,61.7,29.95,North,-999,-999.0,-999.0,34,-99.99,,,-99.99,meteohub,2013-07-19 16:14:00,
2013-07-19 11:20:00,95.0,63.1,29.95,North,-999,-999.0,-999.0,35,-99.99,,,-99.99,meteohub,2013-07-19 16:20:00,
2013-07-19 11:26:00,95.2,63.1,29.95,North,-999,-999.0,-999.0,35,-99.99,,,-99.99,meteohub,2013-07-19 16:26:00,
2013-07-19 11:32:00,95.7,60.3,29.95,North,-999,-999.0,-999.0,31,-99.99,,,-99.99,meteohub,2013-07-19 16:32:00,
2013-07-19 11:37:00,95.9,61.3,29.95,North,-999,-999.0,-999.0,32,-99.99,,,-99.99,meteohub,2013-07-19 16:37:00,
2013-07-19 11:44:00,95.9,61.3,29.94,North,-999,-999.0,-999.0,32,-99.99,,,-99.99,meteohub,2013-07-19 16:44:00,
2013-07-19 11:50:00,94.1,61.5,29.95,North,-999,-999.0,-999.0,34,-99.99,,,-99.99,meteohub,2013-07-19 16:50:00,
2013-07-19 11:56:00,94.6,60.3,29.94,North,-999,-999.0,-999.0,32,-99.99,,,-99.99,meteohub,2013-07-19 16:56:00,
2013-07-19 12:02:00,94.8,60.4,29.94,North,-999,-999.0,-999.0,32,-99.99,,,-99.99,meteohub,2013-07-19 17:02:00,
2013-07-19 12:09:00,96.1,59.5,29.94,North,-999,-999.0,-999.0,30,-99.99,,,-99.99,meteohub,2013-07-19 17:09:00,
2013-07-19 12:15:00,96.6,60.1,29.93,North,-999,-999.0,-999.0,30,-99.99,,,-99.99,meteohub,2013-07-19 17:15:00,
2013-07-19 12:21:00,97.3,57.7,29.93,North,-999,-999.0,-999.0,27,-99.99,,,-99.99,meteohub,2013-07-19 17:21:00,
2013-07-19 12:27:00,97.0,57.4,29.92,North,-999,-999.0,-999.0,27,-99.99,,,-99.99,meteohub,2013-07-19 17:27:00,
2013-07-19 12:34:00,97.0,58.5,29.92,North,-999,-999.0,-999.0,28,-99.99,,,-99.99,meteohub,2013-07-19 17:34:00,
2013-07-19 12:40:00,96.8,57.4,29.92,North,-999,-999.0,-999.0,27,-99.99,,,-99.99,meteohub,2013-07-19 17:40:00,
2013-07-19 12:46:00,97.3,58.8,29.92,North,-999,-999.0,-999.0,28,-99.99,,,-99.99,meteohub,2013-07-19 17:46:00,
2013-07-19 12:52:00,97.5,57.9,29.92,North,-999,-999.0,-999.0,27,-99.99,,,-99.99,meteohub,2013-07-19 17:52:00,
2013-07-19 12:57:00,97.7,58.1,29.92,North,-999,-999.0,-999.0,27,-99.99,,,-99.99,meteohub,2013-07-19 17:57:00,
2013-07-19 13:04:00,96.4,59.0,29.92,North,-999,-999.0,-999.0,29,-99.99,,,-99.99,meteohub,2013-07-19 18:04:00,
2013-07-19 13:10:00,95.9,57.6,29.91,North,-999,-999.0,-999.0,28,-99.99,,,-99.99,meteohub,2013-07-19 18:10:00,
2013-07-19 13:16:00,95.5,57.2,29.91,North,-999,-999.0,-999.0,28,-99.99,,,-99.99,meteohub,2013-07-19 18:16:00,
2013-07-19 13:22:00,95.9,58.5,29.91,North,-999,-999.0,-999.0,29,-99.99,,,-99.99,meteohub,2013-07-19 18:22:00,
2013-07-19 13:29:00,96.3,58.8,29.91,North,-999,-999.0,-999.0,29,-99.99,,,-99.99,meteohub,2013-07-19 18:29:00,
2013-07-19 13:35:00,97.7,54.9,29.91,North,-999,-999.0,-999.0,24,-99.99,,,-99.99,meteohub,2013-07-19 18:35:00,
2013-07-19 13:41:00,97.3,56.7,29.91,North,-999,-999.0,-999.0,26,-99.99,,,-99.99,meteohub,2013-07-19 18:41:00,
2013-07-19 13:47:00,98.4,54.3,29.90,North,-999,-999.0,-999.0,23,-99.99,,,-99.99,meteohub,2013-07-19 18:47:00,
2013-07-19 13:52:00,98.2,55.2,29.90,North,-999,-999.0,-999.0,24,-99.99,,,-99.99,meteohub,2013-07-19 18:52:00,
2013-07-19 13:57:00,99.0,53.4,29.90,North,-999,-999.0,-999.0,22,-99.99,,,-99.99,meteohub,2013-07-19 18:57:00,
2013-07-19 14:02:00,99.7,57.6,29.90,North,-999,-999.0,-999.0,25,-99.99,,,-99.99,meteohub,2013-07-19 19:02:00,
2013-07-19 14:08:00,98.4,54.3,29.90,North,-999,-999.0,-999.0,23,-99.99,,,-99.99,meteohub,2013-07-19 19:08:00,
2013-07-19 14:15:00,98.8,56.8,29.89,North,-999,-999.0,-999.0,25,-99.99,,,-99.99,meteohub,2013-07-19 19:15:00,
2013-07-19 14:21:00,99.9,55.4,29.90,North,-999,-999.0,-999.0,23,-99.99,,,-99.99,meteohub,2013-07-19 19:21:00,
2013-07-19 14:27:00,99.9,56.7,29.89,North,-999,-999.0,-999.0,24,-99.99,,,-99.99,meteohub,2013-07-19 19:27:00,
2013-07-19 14:34:00,98.6,56.7,29.89,North,-999,-999.0,-999.0,25,-99.99,,,-99.99,meteohub,2013-07-19 19:34:00,
2013-07-19 14:40:00,100.4,55.9,29.88,North,-999,-999.0,-999.0,23,-99.99,,,-99.99,meteohub,2013-07-19 19:40:00,
2013-07-19 14:46:00,100.4,55.9,29.88,North,-999,-999.0,-999.0,23,-99.99,,,-99.99,meteohub,2013-07-19 19:46:00,
2013-07-19 14:52:00,100.0,57.9,29.88,North,-999,-999.0,-999.0,25,-99.99,,,-99.99,meteohub,2013-07-19 19:52:00,
2013-07-19 14:57:00,99.5,55.2,29.88,North,-999,-999.0,-999.0,23,-99.99,,,-99.99,meteohub,2013-07-19 19:57:00,
2013-07-19 15:02:00,100.6,56.1,29.88,North,-999,-999.0,-999.0,23,-99.99,,,-99.99,meteohub,2013-07-19 20:02:00,
2013-07-19 15:07:00,101.1,55.2,29.88,North,-999,-999.0,-999.0,22,-99.99,,,-99.99,meteohub,2013-07-19 20:07:00,
2013-07-19 15:14:00,100.2,55.8,29.87,North,-999,-999.0,-999.0,23,-99.99,,,-99.99,meteohub,2013-07-19 20:14:00,
2013-07-19 15:20:00,101.3,56.7,29.87,North,-999,-999.0,-999.0,23,-99.99,,,-99.99,meteohub,2013-07-19 20:20:00,
2013-07-19 15:26:00,102.6,52.3,29.87,North,-999,-999.0,-999.0,19,-99.99,,,-99.99,meteohub,2013-07-19 20:26:00,
2013-07-19 15:32:00,100.6,53.6,29.86,North,-999,-999.0,-999.0,21,-99.99,,,-99.99,meteohub,2013-07-19 20:32:00,
2013-07-19 15:37:00,100.8,56.1,29.86,North,-999,-999.0,-999.0,23,-99.99,,,-99.99,meteohub,2013-07-19 20:37:00,
2013-07-19 15:44:00,102.2,56.1,29.86,North,-999,-999.0,-999.0,22,-99.99,,,-99.99,meteohub,2013-07-19 20:44:00,
2013-07-19 15:52:00,101.3,51.4,29.86,North,-999,-999.0,-999.0,19,-99.99,,,-99.99,meteohub,2013-07-19 20:52:00,
2013-07-19 15:57:00,100.9,52.5,29.86,North,-999,-999.0,-999.0,20,-99.99,,,-99.99,meteohub,2013-07-19 20:57:00,
2013-07-19 16:02:00,102.2,52.2,29.85,North,-999,-999.0,-999.0,19,-99.99,,,-99.99,meteohub,2013-07-19 21:02:00,
2013-07-19 16:07:00,99.7,52.9,29.85,North,-999,-999.0,-999.0,21,-99.99,,,-99.99,meteohub,2013-07-19 21:07:00,
2013-07-19 16:12:00,99.3,53.8,29.85,North,-999,-999.0,-999.0,22,-99.99,,,-99.99,meteohub,2013-07-19 21:12:00,
2013-07-19 16:19:00,101.5,51.6,29.85,North,-999,-999.0,-999.0,19,-99.99,,,-99.99,meteohub,2013-07-19 21:19:00,
2013-07-19 16:25:00,101.1,49.8,29.85,North,-999,-999.0,-999.0,18,-99.99,,,-99.99,meteohub,2013-07-19 21:25:00,
2013-07-19 16:32:00,101.1,52.7,29.85,North,-999,-999.0,-999.0,20,-99.99,,,-99.99,meteohub,2013-07-19 21:32:00,
2013-07-19 16:37:00,100.6,50.9,29.85,North,-999,-999.0,-999.0,19,-99.99,,,-99.99,meteohub,2013-07-19 21:37:00,
2013-07-19 16:42:00,101.7,51.6,29.84,North,-999,-999.0,-999.0,19,-99.99,,,-99.99,meteohub,2013-07-19 21:42:00,
2013-07-19 16:47:00,102.4,52.3,29.84,North,-999,-999.0,-999.0,19,-99.99,,,-99.99,meteohub,2013-07-19 21:47:00,
2013-07-19 16:52:00,103.3,54.3,29.84,North,-999,-999.0,-999.0,20,-99.99,,,-99.99,meteohub,2013-07-19 21:52:00,
2013-07-19 16:57:00,103.5,50.2,29.84,North,-999,-999.0,-999.0,17,-99.99,,,-99.99,meteohub,2013-07-19 21:57:00,
2013-07-19 17:02:00,100.9,51.1,29.84,North,-999,-999.0,-999.0,19,-99.99,,,-99.99,meteohub,2013-07-19 22:02:00,
2013-07-19 17:07:00,101.5,51.6,29.83,North,-999,-999.0,-999.0,19,-99.99,,,-99.99,meteohub,2013-07-19 22:07:00,
2013-07-19 17:12:00,101.5,50.0,29.83,North,-999,-999.0,-999.0,18,-99.99,,,-99.99,meteohub,2013-07-19 22:12:00,
2013-07-19 17:17:00,101.8,50.4,29.83,North,-999,-999.0,-999.0,18,-99.99,,,-99.99,meteohub,2013-07-19 22:17:00,
2013-07-19 17:22:00,102.9,51.3,29.83,North,-999,-999.0,-999.0,18,-99.99,,,-99.99,meteohub,2013-07-19 22:22:00,
2013-07-19 17:27:00,103.1,48.2,29.84,North,-999,-999.0,-999.0,16,-99.99,,,-99.99,meteohub,2013-07-19 22:27:00,
2013-07-19 17:33:00,101.8,51.8,29.84,North,-999,-999.0,-999.0,19,-99.99,,,-99.99,meteohub,2013-07-19 22:33:00,
2013-07-19 17:39:00,101.1,51.3,29.84,North,-999,-999.0,-999.0,19,-99.99,,,-99.99,meteohub,2013-07-19 22:39:00,
2013-07-19 17:46:00,101.5,50.0,29.83,North,-999,-999.0,-999.0,18,-99.99,,,-99.99,meteohub,2013-07-19 22:46:00,
2013-07-19 17:52:00,102.9,49.6,29.83,North,-999,-999.0,-999.0,17,-99.99,,,-99.99,meteohub,2013-07-19 22:52:00,
2013-07-19 17:57:00,104.0,47.3,29.83,North,-999,-999.0,-999.0,15,-99.99,,,-99.99,meteohub,2013-07-19 22:57:00,
2013-07-19 18:04:00,104.4,47.5,29.83,North,-999,-999.0,-999.0,15,-99.99,,,-99.99,meteohub,2013-07-19 23:04:00,
2013-07-19 18:12:00,102.7,49.6,29.83,North,-999,-999.0,-999.0,17,-99.99,,,-99.99,meteohub,2013-07-19 23:12:00,
2013-07-19 18:17:00,102.4,50.9,29.82,North,-999,-999.0,-999.0,18,-99.99,,,-99.99,meteohub,2013-07-19 23:17:00,
2013-07-19 18:22:00,101.5,51.6,29.83,North,-999,-999.0,-999.0,19,-99.99,,,-99.99,meteohub,2013-07-19 23:22:00,
2013-07-19 18:29:00,101.3,51.4,29.82,North,-999,-999.0,-999.0,19,-99.99,,,-99.99,meteohub,2013-07-19 23:29:00,
2013-07-19 18:35:00,100.9,51.1,29.82,North,-999,-999.0,-999.0,19,-99.99,,,-99.99,meteohub,2013-07-19 23:35:00,
2013-07-19 18:41:00,102.2,52.2,29.82,North,-999,-999.0,-999.0,19,-99.99,,,-99.99,meteohub,2013-07-19 23:41:00,
2013-07-19 18:47:00,102.7,51.1,29.82,North,-999,-999.0,-999.0,18,-99.99,,,-99.99,meteohub,2013-07-19 23:47:00,
2013-07-19 18:52:00,102.6,49.5,29.81,North,-999,-999.0,-999.0,17,-99.99,,,-99.99,meteohub,2013-07-19 23:52:00,
2013-07-19 18:57:00,102.2,50.7,29.82,North,-999,-999.0,-999.0,18,-99.99,,,-99.99,meteohub,2013-07-19 23:57:00,
2013-07-19 19:03:00,102.2,52.2,29.82,North,-999,-999.0,-999.0,19,-99.99,,,-99.99,meteohub,2013-07-20 00:03:00,
2013-07-19 19:09:00,102.4,52.3,29.82,North,-999,-999.0,-999.0,19,-99.99,,,-99.99,meteohub,2013-07-20 00:09:00,
2013-07-19 19:15:00,100.8,52.3,29.81,North,-999,-999.0,-999.0,20,-99.99,,,-99.99,meteohub,2013-07-20 00:15:00,
2013-07-19 19:21:00,97.9,55.0,29.81,North,-999,-999.0,-999.0,24,-99.99,,,-99.99,meteohub,2013-07-20 00:21:00,
2013-07-19 19:27:00,97.2,54.3,29.82,North,-999,-999.0,-999.0,24,-99.99,,,-99.99,meteohub,2013-07-20 00:27:00,
2013-07-19 19:34:00,95.9,56.5,29.82,North,-999,-999.0,-999.0,27,-99.99,,,-99.99,meteohub,2013-07-20 00:34:00,
2013-07-19 19:40:00,95.4,57.0,29.82,North,-999,-999.0,-999.0,28,-99.99,,,-99.99,meteohub,2013-07-20 00:40:00,
2013-07-19 19:46:00,94.5,57.4,29.82,North,-999,-999.0,-999.0,29,-99.99,,,-99.99,meteohub,2013-07-20 00:46:00,
2013-07-19 19:52:00,93.7,58.5,29.82,North,-999,-999.0,-999.0,31,-99.99,,,-99.99,meteohub,2013-07-20 00:52:00,
2013-07-19 19:57:00,93.0,58.8,29.82,North,-999,-999.0,-999.0,32,-99.99,,,-99.99,meteohub,2013-07-20 00:57:00,
2013-07-19 20:02:00,92.3,59.0,29.82,North,-999,-999.0,-999.0,33,-99.99,,,-99.99,meteohub,2013-07-20 01:02:00,
2013-07-19 20:07:00,91.9,59.5,29.83,North,-999,-999.0,-999.0,34,-99.99,,,-99.99,meteohub,2013-07-20 01:07:00,
2013-07-19 20:12:00,91.4,59.9,29.83,North,-999,-999.0,-999.0,35,-99.99,,,-99.99,meteohub,2013-07-20 01:12:00,
2013-07-19 20:17:00,91.0,59.5,29.83,North,-999,-999.0,-999.0,35,-99.99,,,-99.99,meteohub,2013-07-20 01:17:00,
2013-07-19 20:23:00,90.3,60.4,29.83,North,-999,-999.0,-999.0,37,-99.99,,,-99.99,meteohub,2013-07-20 01:23:00,
2013-07-19 20:32:00,89.8,60.8,29.83,North,-999,-999.0,-999.0,38,-99.99,,,-99.99,meteohub,2013-07-20 01:32:00,
2013-07-19 20:37:00,89.4,60.4,29.83,North,-999,-999.0,-999.0,38,-99.99,,,-99.99,meteohub,2013-07-20 01:37:00,
2013-07-19 20:42:00,89.1,60.8,29.83,North,-999,-999.0,-999.0,39,-99.99,,,-99.99,meteohub,2013-07-20 01:42:00,
2013-07-19 20:47:00,88.9,60.8,29.83,North,-999,-999.0,-999.0,39,-99.99,,,-99.99,meteohub,2013-07-20 01:47:00,
2013-07-19 20:52:00,88.5,61.2,29.83,North,-999,-999.0,-999.0,40,-99.99,,,-99.99,meteohub,2013-07-20 01:52:00,
2013-07-19 20:57:00,88.2,60.8,29.83,North,-999,-999.0,-999.0,40,-99.99,,,-99.99,meteohub,2013-07-20 01:57:00,
2013-07-19 21:03:00,87.8,61.9,29.83,North,-999,-999.0,-999.0,42,-99.99,,,-99.99,meteohub,2013-07-20 02:03:00,
2013-07-19 21:10:00,87.1,61.2,29.83,North,-999,-999.0,-999.0,42,-99.99,,,-99.99,meteohub,2013-07-20 02:10:00,
2013-07-19 21:16:00,87.6,61.7,29.83,North,-999,-999.0,-999.0,42,-99.99,,,-99.99,meteohub,2013-07-20 02:16:00,
2013-07-19 21:22:00,87.4,62.2,29.84,North,-999,-999.0,-999.0,43,-99.99,,,-99.99,meteohub,2013-07-20 02:22:00,
2013-07-19 21:27:00,87.4,62.2,29.84,North,-999,-999.0,-999.0,43,-99.99,,,-99.99,meteohub,2013-07-20 02:27:00,
2013-07-19 21:34:00,86.5,61.3,29.84,North,-999,-999.0,-999.0,43,-99.99,,,-99.99,meteohub,2013-07-20 02:34:00,
2013-07-19 21:40:00,87.1,62.6,29.84,North,-999,-999.0,-999.0,44,-99.99,,,-99.99,meteohub,2013-07-20 02:40:00,
2013-07-19 21:47:00,86.9,62.4,29.85,North,-999,-999.0,-999.0,44,-99.99,,,-99.99,meteohub,2013-07-20 02:47:00,
2013-07-19 21:52:00,86.9,62.4,29.85,North,-999,-999.0,-999.0,44,-99.99,,,-99.99,meteohub,2013-07-20 02:52:00,
2013-07-19 21:57:00,86.7,62.8,29.85,North,-999,-999.0,-999.0,45,-99.99,,,-99.99,meteohub,2013-07-20 02:57:00,
2013-07-19 22:02:00,86.7,62.8,29.85,North,-999,-999.0,-999.0,45,-99.99,,,-99.99,meteohub,2013-07-20 03:02:00,
2013-07-19 22:11:00,86.5,63.3,29.85,North,-999,-999.0,-999.0,46,-99.99,,,-99.99,meteohub,2013-07-20 03:11:00,
2013-07-19 22:17:00,86.5,63.3,29.85,North,-999,-999.0,-999.0,46,-99.99,,,-99.99,meteohub,2013-07-20 03:17:00,
2013-07-19 22:22:00,86.5,62.6,29.85,North,-999,-999.0,-999.0,45,-99.99,,,-99.99,meteohub,2013-07-20 03:22:00,
2013-07-19 22:27:00,86.5,63.3,29.85,North,-999,-999.0,-999.0,46,-99.99,,,-99.99,meteohub,2013-07-20 03:27:00,
2013-07-19 22:33:00,86.4,63.1,29.84,North,-999,-999.0,-999.0,46,-99.99,,,-99.99,meteohub,2013-07-20 03:33:00,
2013-07-19 22:39:00,86.2,63.0,29.85,North,-999,-999.0,-999.0,46,-99.99,,,-99.99,meteohub,2013-07-20 03:39:00,
2013-07-19 22:46:00,86.2,63.5,29.86,North,-999,-999.0,-999.0,47,-99.99,,,-99.99,meteohub,2013-07-20 03:46:00,
2013-07-19 22:52:00,86.4,63.1,29.86,North,-999,-999.0,-999.0,46,-99.99,,,-99.99,meteohub,2013-07-20 03:52:00,
2013-07-19 22:57:00,86.7,62.8,29.86,North,-999,-999.0,-999.0,45,-99.99,,,-99.99,meteohub,2013-07-20 03:57:00,
2013-07-19 23:01:00,86.9,63.0,29.86,North,-999,-999.0,-999.0,45,-99.99,,,-99.99,meteohub,2013-07-20 04:01:00,
2013-07-19 23:02:00,86.9,63.0,29.86,North,-999,-999.0,-999.0,45,-99.99,,,-99.99,meteohub,2013-07-20 04:02:00,
2013-07-19 23:04:00,87.1,63.9,29.86,North,-999,-999.0,-999.0,46,-99.99,,,-99.99,meteohub,2013-07-20 04:04:00,
2013-07-19 23:10:00,86.9,64.2,29.86,North,-999,-999.0,-999.0,47,-99.99,,,-99.99,meteohub,2013-07-20 04:10:00,
2013-07-19 23:16:00,86.5,64.6,29.86,North,-999,-999.0,-999.0,48,-99.99,,,-99.99,meteohub,2013-07-20 04:16:00,
2013-07-19 23:22:00,86.0,64.6,29.87,North,-999,-999.0,-999.0,49,-99.99,,,-99.99,meteohub,2013-07-20 04:22:00,
2013-07-19 23:27:00,86.0,65.1,29.87,North,-999,-999.0,-999.0,50,-99.99,,,-99.99,meteohub,2013-07-20 04:27:00,
2013-07-19 23:34:00,84.2,66.7,29.86,North,-999,-999.0,-999.0,56,-99.99,,,-99.99,meteohub,2013-07-20 04:34:00,
2013-07-19 23:40:00,83.3,67.5,29.86,North,-999,-999.0,-999.0,59,-99.99,,,-99.99,meteohub,2013-07-20 04:40:00,
2013-07-19 23:46:00,82.6,67.8,29.86,North,-999,-999.0,-999.0,61,-99.99,,,-99.99,meteohub,2013-07-20 04:46:00,
2013-07-19 23:52:00,82.0,67.6,29.87,North,-999,-999.0,-999.0,62,-99.99,,,-99.99,meteohub,2013-07-20 04:52:00,
2013-07-19 23:59:00,81.7,67.5,29.87,North,-999,-999.0,-999.0,62,-99.99,,,-99.99,meteohub,2013-07-20 04:59:00,